Time;durP1;ratioP1;P1;durP2;ratioP2;P2;SDS_P1;SDS_P2;PMS_P1;PMS_P2;Temp;Humidity;BMP_temperature;BMP_pressure;BME280_temperature;BME280_humidity;BME280_pressure;Samples;Min_cycle;Max_cycle;Signal;HPM_P1;HPM_P2
2023/06/19 00:02:16;;;;;;;8.77;7.03;;;;;;;23.51;58.33;100737.00;4969243;28;19922;-70
2023/06/19 00:04:43;;;;;;;8.87;7.53;;;;;;;23.46;57.91;100727.81;4961502;28;20051;-70
2023/06/19 00:07:09;;;;;;;10.43;8.25;;;;;;;23.45;58.90;100736.06;4966825;28;20759;-70
2023/06/19 00:09:36;;;;;;;9.55;8.05;;;;;;;23.45;58.95;100723.47;4960268;28;20488;-70
2023/06/19 00:12:04;;;;;;;11.85;8.25;;;;;;;23.40;59.17;100723.34;4970613;28;20046;-70
2023/06/19 00:14:30;;;;;;;;;;;;;;;23.34;60.10;100731.53;4967316;28;20058;-70
2023/06/19 00:16:56;;;;;;;7.97;6.70;;;;;;;23.29;60.28;100732.22;4947483;28;19930;-69
2023/06/19 00:19:23;;;;;;;11.55;7.30;;;;;;;23.27;60.69;100724.44;4953485;28;20051;-70
2023/06/19 00:21:49;;;;;;;8.68;6.60;;;;;;;23.26;61.01;100728.13;4962370;28;20415;-70
2023/06/19 00:24:16;;;;;;;8.82;6.85;;;;;;;23.20;61.99;100736.28;4964923;28;20047;-70
2023/06/19 00:26:43;;;;;;;8.30;6.30;;;;;;;23.15;62.67;100728.97;4962402;28;20688;-70
2023/06/19 00:29:09;;;;;;;8.05;6.45;;;;;;;23.11;63.32;100733.16;4971330;28;20046;-70
2023/06/19 00:31:37;;;;;;;9.18;6.70;;;;;;;23.02;64.05;100754.06;4972840;28;20376;-69
2023/06/19 00:34:03;;;;;;;11.88;6.45;;;;;;;23.00;64.29;100753.47;4962693;28;20047;-70
2023/06/19 00:36:30;;;;;;;9.43;6.13;;;;;;;22.93;65.48;100760.75;4950729;28;20090;-69
2023/06/19 00:38:56;;;;;;;8.80;7.43;;;;;;;22.94;66.06;100758.94;4969412;28;20504;-70
2023/06/19 00:41:25;;;;;;;7.38;6.32;;;;;;;22.87;66.97;100759.84;4971744;28;20057;-69
2023/06/19 00:43:53;;;;;;;13.10;5.75;;;;;;;22.93;66.85;100754.59;4966748;28;20563;-70
2023/06/19 00:46:20;;;;;;;8.38;6.30;;;;;;;22.88;67.35;100763.31;4972133;28;20058;-69
2023/06/19 00:48:47;;;;;;;8.75;6.53;;;;;;;22.83;67.94;100769.34;4969109;28;20245;-70
2023/06/19 00:51:14;;;;;;;8.93;6.80;;;;;;;22.82;67.98;100772.28;4950231;28;20062;-70
2023/06/19 00:53:40;;;;;;;8.15;6.40;;;;;;;22.83;67.83;100765.88;4979851;28;20556;-70
2023/06/19 00:56:07;;;;;;;11.27;6.30;;;;;;;22.80;68.08;100779.72;4965571;28;20083;-70
2023/06/19 00:58:35;;;;;;;7.65;5.80;;;;;;;22.76;68.16;100776.66;4972741;28;20067;-70
2023/06/19 01:01:01;;;;;;;10.20;6.38;;;;;;;22.80;68.19;100774.38;4962768;28;20067;-69
2023/06/19 01:03:36;;;;;;;7.75;5.43;;;;;;;22.69;68.81;100779.41;4964791;28;20050;-68
2023/06/19 01:06:06;;;;;;;;;;;;;;;22.73;68.67;100787.81;4949951;28;20622;-70
2023/06/19 01:08:49;;;;;;;9.50;6.47;;;;;;;22.67;68.67;100794.06;4967566;28;19949;-69
2023/06/19 01:11:20;;;;;;;8.80;6.32;;;;;;;22.68;69.24;100782.34;4952584;28;20106;-69
2023/06/19 01:14:03;;;;;;;8.55;5.75;;;;;;;22.70;69.11;100786.41;4966518;28;20475;-68
2023/06/19 01:16:30;;;;;;;7.68;5.95;;;;;;;22.68;69.20;100787.69;4961286;28;20042;-69
2023/06/19 01:18:57;;;;;;;9.88;5.50;;;;;;;22.65;69.21;100793.47;4943857;28;20138;-69
2023/06/19 01:21:24;;;;;;;8.50;5.33;;;;;;;22.64;69.33;100800.69;4968783;28;20038;-69
2023/06/19 01:23:50;;;;;;;8.07;5.43;;;;;;;22.67;68.93;100794.06;4969901;28;20440;-69
2023/06/19 01:26:18;;;;;;;8.02;5.38;;;;;;;22.62;68.53;100797.44;4964705;28;20051;-69
2023/06/19 01:28:46;;;;;;;8.50;5.15;;;;;;;22.61;68.49;100790.44;4969647;28;20416;-68
2023/06/19 01:31:21;;;;;;;6.95;5.43;;;;;;;22.59;68.47;100789.03;4959281;28;20479;-69
2023/06/19 01:33:51;;;;;;;7.28;5.10;;;;;;;22.56;68.04;100798.34;4968138;28;20146;-67
2023/06/19 01:36:19;;;;;;;7.72;5.10;;;;;;;22.55;68.53;100798.56;4964130;28;20492;-70
2023/06/19 01:38:47;;;;;;;7.40;5.23;;;;;;;22.48;68.53;100802.16;4974392;28;20256;-69
2023/06/19 01:41:16;;;;;;;6.97;4.90;;;;;;;22.50;68.71;100808.09;4963236;28;20284;-69
2023/06/19 01:43:44;;;;;;;6.10;4.60;;;;;;;22.43;69.25;100796.66;4971053;28;20058;-67
2023/06/19 01:46:10;;;;;;;8.35;4.93;;;;;;;22.37;69.82;100797.56;4965068;28;20050;-68
2023/06/19 01:48:39;;;;;;;7.78;5.03;;;;;;;22.39;69.58;100795.47;4960007;28;20431;-67
2023/06/19 01:51:06;;;;;;;7.22;4.70;;;;;;;22.25;70.93;100804.72;4968530;28;20106;-68
2023/06/19 01:53:33;;;;;;;8.25;4.82;;;;;;;22.18;71.32;100801.25;4965710;28;20460;-69
2023/06/19 01:56:00;;;;;;;8.85;4.75;;;;;;;22.15;71.77;100807.03;4949554;28;20050;-69
2023/06/19 01:58:27;;;;;;;6.38;4.55;;;;;;;22.05;72.50;100811.06;4968100;28;20082;-70
2023/06/19 02:00:54;;;;;;;6.55;4.47;;;;;;;22.00;72.85;100808.22;4952479;28;20051;-69
2023/06/19 02:03:21;;;;;;;9.13;5.00;;;;;;;22.02;72.70;100814.16;4968609;28;20548;-69
2023/06/19 02:05:47;;;;;;;6.43;4.20;;;;;;;21.94;74.17;100814.47;4963687;28;20051;-68
2023/06/19 02:08:14;;;;;;;6.53;4.65;;;;;;;21.90;75.06;100823.97;4977285;28;20050;-69
2023/06/19 02:10:40;;;;;;;6.07;4.05;;;;;;;21.83;76.06;100824.00;4972821;28;20495;-69
2023/06/19 02:13:07;;;;;;;6.82;4.60;;;;;;;21.77;76.74;100816.88;4968690;28;20061;-69
2023/06/19 02:15:33;;;;;;;8.32;4.20;;;;;;;21.71;77.45;100829.25;4951949;28;20055;-70
2023/06/19 02:18:00;;;;;;;7.03;4.25;;;;;;;21.68;78.57;100847.59;4967136;28;20097;-68
2023/06/19 02:20:26;;;;;;;5.43;4.20;;;;;;;21.66;78.64;100841.63;4964673;28;20050;-68
2023/06/19 02:22:53;;;;;;;6.35;4.75;;;;;;;21.57;79.47;100837.63;4952323;28;20054;-68
2023/06/19 02:25:19;;;;;;;6.97;5.15;;;;;;;21.46;80.76;100839.97;4970400;28;20055;-68
2023/06/19 02:27:47;;;;;;;7.85;4.63;;;;;;;21.44;81.63;100846.53;4958310;28;20047;-68
2023/06/19 02:30:14;;;;;;;7.87;4.37;;;;;;;21.38;82.19;100852.72;4962039;28;20514;-69
2023/06/19 02:32:40;;;;;;;6.85;3.88;;;;;;;21.25;85.23;100865.13;4963931;28;20289;-70
2023/06/19 02:35:10;;;;;;;4.93;3.53;;;;;;;21.09;87.88;100866.47;4968159;28;20070;-69
2023/06/19 02:37:37;;;;;;;7.07;3.53;;;;;;;21.03;89.49;100861.16;4971178;28;20055;-70
2023/06/19 02:40:05;;;;;;;5.80;3.58;;;;;;;20.90;91.31;100867.41;4965761;28;20047;-70
2023/06/19 02:42:31;;;;;;;8.00;3.75;;;;;;;20.86;91.99;100867.00;4946863;28;20085;-70
2023/06/19 02:45:02;;;;;;;5.95;4.00;;;;;;;20.80;92.70;100864.38;4946667;28;20097;-70
2023/06/19 02:47:30;;;;;;;5.47;3.72;;;;;;;20.69;94.28;100869.34;4970688;28;20042;-69
2023/06/19 02:49:57;;;;;;;;;;;;;;;20.66;95.04;100869.78;4954624;28;20170;-70
2023/06/19 02:52:24;;;;;;;5.65;3.10;;;;;;;20.65;95.03;100869.97;4952512;28;20005;-70
2023/06/19 02:54:51;;;;;;;6.28;3.40;;;;;;;20.53;98.07;100889.25;4966690;28;20065;-69
2023/06/19 02:57:17;;;;;;;5.30;3.10;;;;;;;20.47;99.84;100882.13;4959073;28;20058;-69
2023/06/19 02:59:45;;;;;;;4.22;2.53;;;;;;;20.42;100.00;100887.25;4968797;28;20059;-69
2023/06/19 03:02:12;;;;;;;6.35;3.55;;;;;;;20.43;100.00;100886.22;4963669;28;20507;-69
2023/06/19 03:04:40;;;;;;;5.63;3.10;;;;;;;20.47;100.00;100889.28;4968811;28;20492;-69
2023/06/19 03:07:07;;;;;;;5.80;3.10;;;;;;;20.41;100.00;100895.47;4969792;28;20074;-69
2023/06/19 03:09:33;;;;;;;5.18;3.08;;;;;;;20.39;100.00;100890.34;4959252;28;20055;-69
2023/06/19 03:12:00;;;;;;;5.22;3.38;;;;;;;20.35;100.00;100892.59;4969465;28;20050;-69
2023/06/19 03:14:26;;;;;;;4.88;3.42;;;;;;;20.34;100.00;100893.63;4965942;28;20055;-69
2023/06/19 03:16:52;;;;;;;4.88;3.17;;;;;;;20.38;100.00;100895.88;4969685;28;20748;-69
2023/06/19 03:19:19;;;;;;;4.75;3.30;;;;;;;20.30;100.00;100894.25;4963369;28;20043;-69
2023/06/19 03:21:45;;;;;;;5.38;3.22;;;;;;;20.35;100.00;100891.78;4947243;28;20046;-69
2023/06/19 03:24:12;;;;;;;5.22;2.88;;;;;;;20.29;100.00;100889.97;4954736;28;20059;-69
2023/06/19 03:26:38;;;;;;;6.88;2.83;;;;;;;20.24;100.00;100892.44;4963269;28;20065;-69
2023/06/19 03:29:05;;;;;;;4.90;3.15;;;;;;;20.28;100.00;100890.97;4971770;28;20051;-69
2023/06/19 03:31:31;;;;;;;5.70;2.88;;;;;;;20.26;100.00;100882.38;4963845;28;20063;-70
2023/06/19 03:33:58;;;;;;;3.35;2.45;;;;;;;20.22;100.00;100894.47;4970941;28;20047;-69
2023/06/19 03:36:24;;;;;;;3.92;2.63;;;;;;;20.17;100.00;100886.28;4960533;28;20542;-69
2023/06/19 03:38:53;;;;;;;5.13;2.60;;;;;;;20.22;100.00;100889.16;4964996;28;20133;-69
2023/06/19 03:41:20;;;;;;;4.88;2.60;;;;;;;20.14;100.00;100893.66;4968977;28;20122;-69
2023/06/19 03:43:46;;;;;;;4.43;2.50;;;;;;;20.11;100.00;100898.59;4948088;28;20051;-69
2023/06/19 03:46:13;;;;;;;5.30;2.83;;;;;;;20.14;100.00;100903.50;4968761;28;20046;-68
2023/06/19 03:48:39;;;;;;;3.03;2.33;;;;;;;20.12;100.00;100902.91;4963681;28;20050;-69
2023/06/19 03:51:06;;;;;;;3.65;2.67;;;;;;;20.10;100.00;100904.94;4961818;28;20486;-69
2023/06/19 03:53:32;;;;;;;5.05;3.25;;;;;;;20.09;100.00;100903.28;4943263;28;20078;-69
2023/06/19 03:55:59;;;;;;;4.38;3.13;;;;;;;20.00;100.00;100907.22;4970352;28;20477;-70
2023/06/19 03:58:25;;;;;;;5.78;2.90;;;;;;;20.03;100.00;100915.63;4975936;28;20054;-69
2023/06/19 04:00:52;;;;;;;4.60;3.10;;;;;;;20.06;100.00;100911.72;4968800;28;20050;-69
2023/06/19 04:03:19;;;;;;;6.65;3.00;;;;;;;20.05;100.00;100918.91;4970776;28;20126;-69
2023/06/19 04:05:46;;;;;;;4.75;2.65;;;;;;;20.01;100.00;100924.81;4961334;28;20492;-69
2023/06/19 04:08:12;;;;;;;5.13;2.63;;;;;;;20.03;100.00;100920.94;4972414;28;20562;-69
2023/06/19 04:10:39;;;;;;;4.05;2.70;;;;;;;20.06;100.00;100915.19;4969625;28;20101;-70
2023/06/19 04:13:06;;;;;;;7.25;2.63;;;;;;;20.05;100.00;100920.72;4970705;28;20169;-69
2023/06/19 04:15:35;;;;;;;4.90;2.92;;;;;;;20.07;100.00;100929.31;4971617;28;20054;-71
2023/06/19 04:18:02;;;;;;;11.88;2.75;;;;;;;20.19;100.00;100926.84;4966412;28;20059;-69
2023/06/19 04:20:28;;;;;;;4.18;2.35;;;;;;;20.20;100.00;100931.97;4972609;28;20554;-69
2023/06/19 04:22:55;;;;;;;3.88;2.65;;;;;;;20.08;100.00;100934.44;4968958;28;20090;-69
2023/06/19 04:25:21;;;;;;;5.75;2.85;;;;;;;20.17;100.00;100937.72;4976481;28;20050;-69
2023/06/19 04:27:48;;;;;;;5.15;2.95;;;;;;;20.15;100.00;100937.94;4967700;28;20262;-70
2023/06/19 04:30:14;;;;;;;3.85;2.78;;;;;;;20.21;100.00;100946.94;4970287;28;20481;-69
2023/06/19 04:32:41;;;;;;;4.43;2.75;;;;;;;20.14;100.00;100946.94;4974211;28;20467;-68
2023/06/19 04:35:09;;;;;;;6.10;3.00;;;;;;;20.09;100.00;100941.41;4969015;28;20110;-69
2023/06/19 04:37:36;;;;;;;6.00;3.10;;;;;;;20.18;100.00;100954.50;4976477;28;20053;-72
2023/06/19 04:40:07;;;;;;;6.57;3.15;;;;;;;20.13;100.00;100947.97;4975892;28;20057;-70
2023/06/19 04:42:34;;;;;;;5.78;3.20;;;;;;;20.09;100.00;100949.41;4978566;28;20055;-68
2023/06/19 04:45:00;;;;;;;5.53;3.53;;;;;;;20.15;100.00;100953.09;4978986;28;20473;-71
2023/06/19 04:47:27;;;;;;;5.70;3.22;;;;;;;20.18;100.00;100957.19;4959738;28;20054;-69
2023/06/19 04:50:15;;;;;;;5.15;3.00;;;;;;;20.11;100.00;100960.66;4975758;28;20464;-69
2023/06/19 04:52:42;;;;;;;;;;;;;;;20.01;100.00;100970.09;4968505;28;20051;-69
2023/06/19 04:55:11;;;;;;;5.30;3.03;;;;;;;20.07;100.00;100961.25;4967563;28;19980;-69
2023/06/19 04:57:37;;;;;;;4.82;3.05;;;;;;;20.09;100.00;100970.72;4963855;28;20058;-69
2023/06/19 05:00:09;;;;;;;5.65;3.25;;;;;;;20.05;100.00;100974.81;4976503;28;20538;-70
2023/06/19 05:02:36;;;;;;;8.50;3.90;;;;;;;19.97;100.00;100969.66;4964274;28;20057;-70
2023/06/19 05:05:04;;;;;;;6.95;3.65;;;;;;;19.94;100.00;100975.41;4973308;28;20074;-69
2023/06/19 05:07:31;;;;;;;6.55;3.75;;;;;;;19.92;100.00;100972.94;4966792;28;20074;-69
2023/06/19 05:10:00;;;;;;;4.77;3.63;;;;;;;20.01;100.00;100978.06;4946169;28;20074;-69
2023/06/19 05:12:27;;;;;;;4.93;3.80;;;;;;;19.96;100.00;100976.03;4939171;28;20055;-69
2023/06/19 05:14:53;;;;;;;4.85;3.75;;;;;;;19.99;100.00;100983.59;4968725;28;20050;-69
2023/06/19 05:17:20;;;;;;;5.38;4.18;;;;;;;20.00;100.00;100987.91;4972222;28;20114;-69
2023/06/19 05:19:47;;;;;;;7.35;3.70;;;;;;;20.02;100.00;100985.03;4973119;28;20555;-69
2023/06/19 05:22:14;;;;;;;6.80;4.45;;;;;;;20.06;100.00;100991.59;4960319;28;20721;-68
2023/06/19 05:24:41;;;;;;;5.68;4.07;;;;;;;20.01;100.00;101000.19;4951766;28;20540;-69
2023/06/19 05:27:07;;;;;;;6.07;4.30;;;;;;;19.96;100.00;101010.63;4948015;28;20051;-70
2023/06/19 05:29:34;;;;;;;7.93;4.50;;;;;;;19.85;100.00;101004.06;4947420;28;20051;-70
2023/06/19 05:32:00;;;;;;;8.20;4.53;;;;;;;19.84;100.00;100999.78;4959734;28;20411;-69
2023/06/19 05:34:27;;;;;;;6.00;4.38;;;;;;;19.87;100.00;100991.38;4962734;28;20563;-69
2023/06/19 05:36:54;;;;;;;6.82;4.30;;;;;;;19.96;100.00;101000.00;4968275;28;20054;-70
2023/06/19 05:39:20;;;;;;;8.68;5.28;;;;;;;19.94;100.00;100997.53;4963223;28;20069;-70
2023/06/19 05:41:47;;;;;;;7.75;4.85;;;;;;;19.96;100.00;101000.00;4970843;28;20047;-70
2023/06/19 05:44:16;;;;;;;6.30;4.53;;;;;;;20.03;100.00;100995.50;4970085;28;20042;-71
2023/06/19 05:46:43;;;;;;;8.05;5.10;;;;;;;20.06;100.00;100995.06;4969904;28;20106;-70
2023/06/19 05:49:09;;;;;;;10.70;5.32;;;;;;;20.12;100.00;100999.56;4964884;28;20054;-73
2023/06/19 05:51:36;;;;;;;7.38;4.95;;;;;;;20.19;100.00;101001.41;4967453;28;20435;-70
2023/06/19 05:54:03;;;;;;;8.25;5.40;;;;;;;20.20;100.00;100998.53;4964140;28;20150;-73
2023/06/19 05:56:32;;;;;;;8.93;5.40;;;;;;;20.27;100.00;101004.69;4965088;28;20047;-72
2023/06/19 05:59:01;;;;;;;9.75;6.00;;;;;;;20.39;100.00;100996.91;4970142;28;20050;-72
2023/06/19 06:01:30;;;;;;;;;;;;;;;20.40;100.00;101008.38;4932004;28;20058;-72
2023/06/19 06:03:57;;;;;;;9.80;6.43;;;;;;;20.47;100.00;101011.84;4972130;28;19991;-72
2023/06/19 06:06:25;;;;;;;10.35;7.20;;;;;;;20.37;100.00;101012.28;4960028;28;20054;-72
2023/06/19 06:08:52;;;;;;;9.07;6.40;;;;;;;20.45;100.00;101021.91;4952334;28;20141;-72
2023/06/19 06:11:19;;;;;;;9.95;8.20;;;;;;;20.42;100.00;101022.31;4954947;28;20066;-72
2023/06/19 06:13:45;;;;;;;9.63;7.15;;;;;;;20.49;100.00;101031.13;4968068;28;20404;-73
2023/06/19 06:16:12;;;;;;;11.48;8.40;;;;;;;20.51;100.00;101024.53;4970145;28;20047;-72
2023/06/19 06:18:38;;;;;;;9.90;8.20;;;;;;;20.42;100.00;101038.28;4941279;28;20069;-72
2023/06/19 06:21:04;;;;;;;9.68;7.63;;;;;;;20.47;100.00;101031.31;4967694;28;20057;-71
2023/06/19 06:23:31;;;;;;;10.48;7.78;;;;;;;20.40;100.00;101033.16;4964666;28;20058;-71
2023/06/19 06:26:02;;;;;;;10.80;8.10;;;;;;;20.41;100.00;101036.66;4972880;28;20118;-71
2023/06/19 06:28:28;;;;;;;13.02;7.57;;;;;;;20.43;100.00;101037.28;4971946;28;20058;-71
2023/06/19 06:30:55;;;;;;;10.57;7.13;;;;;;;20.53;100.00;101040.34;4966889;28;20059;-70
2023/06/19 06:33:22;;;;;;;10.13;7.47;;;;;;;20.51;100.00;101047.72;4968264;28;20563;-71
2023/06/19 06:35:49;;;;;;;8.88;6.68;;;;;;;20.53;100.00;101043.00;4963340;28;20145;-70
2023/06/19 06:38:15;;;;;;;8.98;6.97;;;;;;;20.52;100.00;101047.50;4953104;28;20113;-70
2023/06/19 06:40:43;;;;;;;10.77;7.88;;;;;;;20.45;100.00;101041.38;4967597;28;20145;-69
2023/06/19 06:43:09;;;;;;;9.05;7.47;;;;;;;20.48;100.00;101050.78;4971625;28;20077;-70
2023/06/19 06:45:37;;;;;;;11.20;7.05;;;;;;;20.55;100.00;101051.59;4970501;28;20050;-70
2023/06/19 06:48:06;;;;;;;8.95;7.05;;;;;;;20.53;100.00;101048.31;4945138;28;20046;-70
2023/06/19 06:50:33;;;;;;;11.88;7.53;;;;;;;20.49;100.00;101058.56;4972706;28;20046;-70
2023/06/19 06:53:00;;;;;;;8.65;7.20;;;;;;;20.47;100.00;101059.81;4966936;28;20109;-69
2023/06/19 06:55:27;;;;;;;12.40;7.80;;;;;;;20.40;100.00;101072.31;4972312;28;20117;-70
2023/06/19 06:57:53;;;;;;;9.55;7.85;;;;;;;20.33;100.00;101070.47;4967618;28;20074;-71
2023/06/19 07:00:20;;;;;;;9.82;7.13;;;;;;;20.45;100.00;101086.66;4968053;28;20523;-71
2023/06/19 07:02:50;;;;;;;9.68;7.25;;;;;;;20.42;100.00;101075.59;4966497;28;20571;-69
2023/06/19 07:05:17;;;;;;;11.93;7.93;;;;;;;20.52;100.00;101082.16;4948495;28;20570;-70
2023/06/19 07:07:43;;;;;;;12.27;8.07;;;;;;;20.48;100.00;101091.59;4966348;28;20055;-69
2023/06/19 07:10:10;;;;;;;10.02;8.07;;;;;;;20.55;100.00;101089.72;4964503;28;20051;-69
2023/06/19 07:12:48;;;;;;;11.27;8.55;;;;;;;20.69;100.00;101090.56;4967030;28;20078;-70
2023/06/19 07:15:14;;;;;;;12.77;8.32;;;;;;;20.89;100.00;101095.03;4961609;28;20436;-69
2023/06/19 07:17:41;;;;;;;12.65;8.93;;;;;;;20.97;100.00;101096.66;4967586;28;20054;-69
2023/06/19 07:20:08;;;;;;;10.90;8.55;;;;;;;21.06;100.00;101095.44;4967760;28;20046;-70
2023/06/19 07:22:35;;;;;;;9.57;8.48;;;;;;;21.13;100.00;101102.38;4964637;28;20054;-68
2023/06/19 07:25:01;;;;;;;13.18;8.90;;;;;;;21.07;100.00;101103.22;4972024;28;20059;-68
2023/06/19 07:27:28;;;;;;;10.57;7.25;;;;;;;21.14;100.00;101111.19;4945765;28;20047;-68
2023/06/19 07:29:55;;;;;;;10.07;7.13;;;;;;;21.00;100.00;101121.09;4956256;28;20058;-68
2023/06/19 07:32:22;;;;;;;9.00;6.93;;;;;;;20.98;100.00;101123.13;4962161;28;20086;-68
2023/06/19 07:34:48;;;;;;;10.90;7.35;;;;;;;20.92;100.00;101127.44;4967462;28;20043;-67
2023/06/19 07:37:17;;;;;;;10.27;6.97;;;;;;;20.99;100.00;101123.94;4971522;28;20109;-70
2023/06/19 07:39:49;;;;;;;9.60;7.38;;;;;;;20.98;95.87;101125.81;4958858;28;20055;-69
2023/06/19 07:42:17;;;;;;;11.32;8.43;;;;;;;20.89;96.36;101111.03;4966678;28;20047;-69
2023/06/19 07:44:44;;;;;;;9.80;8.43;;;;;;;21.08;97.01;101109.38;4961090;28;20080;-69
2023/06/19 07:47:11;;;;;;;12.80;8.27;;;;;;;21.19;94.72;101135.41;4963539;28;20051;-69
2023/06/19 07:49:38;;;;;;;10.77;8.50;;;;;;;21.33;96.30;101121.00;4964660;28;20051;-68
2023/06/19 07:52:05;;;;;;;11.55;8.45;;;;;;;21.48;91.83;101133.28;4970809;28;20061;-68
2023/06/19 07:54:34;;;;;;;9.77;7.43;;;;;;;21.49;89.35;101146.41;4968371;28;20101;-68
2023/06/19 07:57:01;;;;;;;12.27;9.18;;;;;;;21.31;87.18;101163.06;4958850;28;20047;-68
2023/06/19 07:59:28;;;;;;;13.13;9.95;;;;;;;21.21;89.13;101162.69;4947125;28;20086;-68
2023/06/19 08:01:54;;;;;;;9.35;8.43;;;;;;;21.42;88.52;101164.25;4945680;28;20090;-67
2023/06/19 08:04:21;;;;;;;13.20;10.52;;;;;;;21.44;87.22;101164.09;4964935;28;20050;-67
2023/06/19 08:06:47;;;;;;;10.98;9.88;;;;;;;21.55;86.48;101170.63;4963045;28;20420;-69
2023/06/19 08:09:14;;;;;;;17.13;10.95;;;;;;;21.48;86.03;101173.31;4964852;28;20058;-69
2023/06/19 08:11:41;;;;;;;11.52;8.63;;;;;;;21.63;85.81;101165.06;4958844;28;20472;-70
2023/06/19 08:14:07;;;;;;;11.85;9.73;;;;;;;21.63;83.67;101178.41;4963012;28;20049;-69
2023/06/19 08:16:34;;;;;;;12.40;9.05;;;;;;;21.55;84.77;101168.78;4972713;28;20065;-67
2023/06/19 08:19:00;;;;;;;12.25;8.98;;;;;;;21.86;84.52;101160.03;4955457;28;20047;-68
2023/06/19 08:21:27;;;;;;;13.18;9.80;;;;;;;21.97;81.74;101166.53;4966839;28;20051;-70
2023/06/19 08:23:53;;;;;;;13.10;10.30;;;;;;;21.91;80.58;101168.22;4956567;28;20050;-66
2023/06/19 08:26:20;;;;;;;13.07;10.57;;;;;;;21.94;81.39;101166.16;4965879;28;20047;-68
2023/06/19 08:28:47;;;;;;;11.60;9.93;;;;;;;22.06;80.03;101172.47;4968465;28;20097;-68
2023/06/19 08:31:14;;;;;;;11.02;8.75;;;;;;;22.27;79.86;101168.69;4964303;28;20428;-68
2023/06/19 08:33:40;;;;;;;12.63;10.30;;;;;;;22.37;79.30;101185.03;4968278;28;20078;-68
2023/06/19 08:36:07;;;;;;;11.50;8.93;;;;;;;22.59;78.94;101190.84;4962966;28;20047;-67
2023/06/19 08:38:33;;;;;;;12.90;8.45;;;;;;;22.86;78.60;101194.13;4963647;28;20057;-67
2023/06/19 08:41:00;;;;;;;12.15;10.25;;;;;;;23.01;75.21;101190.28;4965411;28;20054;-68
2023/06/19 08:43:27;;;;;;;10.73;9.60;;;;;;;23.15;75.35;101201.72;4972836;28;20039;-68
2023/06/19 08:46:11;;;;;;;12.65;10.35;;;;;;;23.12;74.71;101200.31;4975982;28;20271;-69
2023/06/19 08:48:38;;;;;;;14.55;9.98;;;;;;;23.31;74.59;101195.81;4969690;28;20423;-68
2023/06/19 08:51:05;;;;;;;11.43;10.23;;;;;;;23.67;73.76;101203.00;4952526;28;20463;-68
2023/06/19 08:53:37;;;;;;;11.75;9.68;;;;;;;24.04;71.58;101194.94;4967163;28;20300;-67
2023/06/19 08:56:04;;;;;;;12.55;9.85;;;;;;;24.24;71.84;101186.63;4973947;28;20503;-67
2023/06/19 08:58:30;;;;;;;13.93;10.90;;;;;;;24.06;70.01;101186.69;4968990;28;20148;-69
2023/06/19 09:01:00;;;;;;;13.48;11.18;;;;;;;24.13;69.49;101181.22;4973507;28;20078;-67
2023/06/19 09:03:26;;;;;;;12.38;10.80;;;;;;;24.35;69.95;101170.81;4969571;28;20463;-68
2023/06/19 09:05:53;;;;;;;13.05;10.80;;;;;;;24.53;67.88;101178.81;4967295;28;20149;-68
2023/06/19 09:08:21;;;;;;;13.52;10.98;;;;;;;24.59;67.05;101185.91;4955325;28;20051;-69
2023/06/19 09:11:03;;;;;;;12.73;9.75;;;;;;;24.83;69.34;101189.44;4979125;28;20057;-70
2023/06/19 09:13:30;;;;;;;12.82;9.80;;;;;;;24.96;67.99;101199.16;4964720;28;20301;-68
2023/06/19 09:16:02;;;;;;;14.73;9.82;;;;;;;24.67;66.09;101207.03;4966111;28;20039;-68
2023/06/19 09:18:43;;;;;;;14.13;11.95;;;;;;;24.42;66.91;101195.66;4954988;28;20058;-68
2023/06/19 09:21:28;;;;;;;14.68;11.90;;;;;;;24.06;67.88;101202.75;4967340;28;20425;-67
2023/06/19 09:24:01;;;;;;;16.08;11.30;;;;;;;24.09;69.67;101199.66;4957015;28;20462;-69
2023/06/19 09:26:28;;;;;;;15.20;12.23;;;;;;;24.38;68.50;101199.84;4954299;28;20055;-68
2023/06/19 09:28:55;;;;;;;14.10;11.35;;;;;;;24.04;70.23;101204.84;4975797;28;20417;-68
2023/06/19 09:31:34;;;;;;;14.95;13.40;;;;;;;24.18;70.62;101213.53;4972544;28;20050;-67
2023/06/19 09:34:00;;;;;;;;;;;;;;;24.62;69.44;101208.78;4962482;28;20175;-69
2023/06/19 09:36:28;;;;;;;12.60;10.48;;;;;;;25.09;68.20;101221.41;4950902;28;19932;-67
2023/06/19 09:38:56;;;;;;;12.70;10.70;;;;;;;25.46;67.19;101222.00;4951697;28;20062;-67
2023/06/19 09:41:24;;;;;;;18.60;14.20;;;;;;;25.07;63.79;101243.16;4974484;28;20570;-68
2023/06/19 09:43:57;;;;;;;19.55;14.40;;;;;;;24.95;64.92;101231.56;4969714;28;20150;-68
2023/06/19 09:46:31;;;;;;;15.85;12.98;;;;;;;25.11;65.13;101227.38;4966118;28;20051;-68
2023/06/19 09:49:04;;;;;;;17.85;12.40;;;;;;;25.11;64.60;101236.25;4969299;28;20432;-68
2023/06/19 09:51:36;;;;;;;13.55;11.57;;;;;;;25.60;64.66;101215.34;4966002;28;20055;-67
2023/06/19 09:54:06;;;;;;;16.58;13.55;;;;;;;25.80;61.68;101219.50;4973726;28;20491;-70
2023/06/19 09:56:33;;;;;;;15.35;13.27;;;;;;;25.79;61.68;101234.78;4965353;28;20086;-68
2023/06/19 09:59:00;;;;;;;16.85;12.00;;;;;;;25.78;62.83;101227.78;4971661;28;20831;-68
2023/06/19 10:01:29;;;;;;;15.40;13.77;;;;;;;25.62;61.37;101233.91;4960086;28;20057;-70
2023/06/19 10:04:04;;;;;;;15.95;12.85;;;;;;;25.96;60.71;101239.44;4966536;28;20047;-69
2023/06/19 10:06:31;;;;;;;19.13;14.23;;;;;;;26.01;60.59;101236.84;4961003;28;20058;-68
2023/06/19 10:09:07;;;;;;;16.38;12.90;;;;;;;25.98;59.39;101245.41;4970144;28;20177;-70
2023/06/19 10:11:48;;;;;;;15.88;14.05;;;;;;;26.00;59.76;101235.22;4967039;28;20058;-69
2023/06/19 10:14:18;;;;;;;15.20;13.57;;;;;;;25.89;60.09;101231.47;4964088;28;20083;-70
2023/06/19 10:16:45;;;;;;;14.88;12.07;;;;;;;26.51;60.07;101241.53;4970911;28;20134;-68
2023/06/19 10:19:14;;;;;;;19.90;13.73;;;;;;;26.72;58.09;101236.53;4963869;28;20082;-68
2023/06/19 10:21:46;;;;;;;14.30;12.35;;;;;;;26.95;57.34;101235.53;4975538;28;20054;-68
2023/06/19 10:24:19;;;;;;;14.45;11.63;;;;;;;26.94;57.58;101231.22;4964992;28;20499;-67
2023/06/19 10:26:58;;;;;;;14.05;12.32;;;;;;;27.15;56.63;101229.66;4974084;28;20481;-68
2023/06/19 10:29:25;;;;;;;16.77;13.00;;;;;;;27.23;56.35;101242.69;4963830;28;20245;-68
2023/06/19 10:31:52;;;;;;;;;;;;;;;27.00;55.43;101236.44;4968863;28;20300;-67
2023/06/19 10:34:19;;;;;;;15.15;13.57;;;;;;;27.18;56.47;101237.22;4973136;28;20066;-68
2023/06/19 10:36:45;;;;;;;19.02;13.93;;;;;;;27.12;55.54;101235.53;4963603;28;20055;-69
2023/06/19 10:39:13;;;;;;;22.05;18.10;;;;;;;25.99;57.09;101238.97;4960382;28;20039;-67
2023/06/19 10:41:40;;;;;;;20.38;18.15;;;;;;;25.88;58.23;101243.31;4964929;28;20047;-69
2023/06/19 10:44:12;;;;;;;16.73;15.10;;;;;;;26.15;59.10;101240.91;4968700;28;20050;-66
2023/06/19 10:46:40;;;;;;;14.55;13.05;;;;;;;26.48;56.85;101228.56;4965120;28;20057;-69
2023/06/19 10:49:10;;;;;;;17.98;15.88;;;;;;;26.84;56.94;101231.88;4975537;28;20047;-66
2023/06/19 10:51:41;;;;;;;17.60;15.13;;;;;;;26.78;56.65;101240.94;4969355;28;20078;-70
2023/06/19 10:54:08;;;;;;;23.33;17.30;;;;;;;26.42;55.97;101232.22;4973991;28;20054;-70
2023/06/19 10:56:34;;;;;;;18.98;17.08;;;;;;;26.23;56.32;101237.00;4967293;28;20117;-68
2023/06/19 10:59:05;;;;;;;18.58;16.27;;;;;;;26.32;56.71;101223.97;4962000;28;20105;-69
2023/06/19 11:01:37;;;;;;;17.67;14.85;;;;;;;26.44;57.54;101236.31;4970163;28;20149;-68
2023/06/19 11:04:08;;;;;;;16.90;15.10;;;;;;;26.77;57.27;101228.53;4967082;28;20057;-70
2023/06/19 11:06:36;;;;;;;19.13;16.23;;;;;;;27.22;55.22;101217.63;4963385;28;20057;-67
2023/06/19 11:09:04;;;;;;;;;;;;;;;27.47;53.83;101224.47;4956583;28;20110;-67
2023/06/19 11:11:49;;;;;;;19.92;15.77;;;;;;;27.90;54.09;101219.34;4962848;28;19926;-68
2023/06/19 11:14:16;;;;;;;18.13;16.17;;;;;;;27.91;52.29;101227.19;4967359;28;20070;-68
2023/06/19 11:16:46;;;;;;;21.65;17.38;;;;;;;27.61;52.15;101220.31;4972183;28;20051;-68
2023/06/19 11:19:16;;;;;;;19.92;17.73;;;;;;;27.19;53.27;101228.91;4978353;28;20042;-69
2023/06/19 11:21:46;;;;;;;19.48;15.63;;;;;;;27.63;53.96;101217.38;4971322;28;20788;-68
2023/06/19 11:24:14;;;;;;;19.55;16.20;;;;;;;27.72;53.24;101223.97;4969499;28;20787;-67